createdAt,value
2018-12-05T00:00:11.711Z,9.50
2018-12-05T00:01:10.632Z,9.50
2018-12-05T00:02:10.653Z,8.90
2018-12-05T00:03:10.616Z,11.70
2018-12-05T00:04:10.599Z,9.80
2018-12-05T00:05:10.587Z,8.90
2018-12-05T00:06:10.599Z,6.80
2018-12-05T00:07:10.573Z,8.40
2018-12-05T00:08:10.583Z,9.60
2018-12-05T00:09:10.547Z,9.10
2018-12-05T00:10:10.533Z,8.00
2018-12-05T00:11:10.523Z,7.70
2018-12-05T00:12:10.511Z,7.30
2018-12-05T00:13:10.523Z,9.40
2018-12-05T00:14:10.493Z,10.30
2018-12-05T00:15:10.497Z,10.50
2018-12-05T00:16:10.470Z,9.60
2018-12-05T00:17:10.472Z,9.10
2018-12-05T00:18:10.472Z,12.00
2018-12-05T00:19:10.473Z,13.10
2018-12-05T00:20:10.438Z,8.40
2018-12-05T00:21:10.416Z,6.90
2018-12-05T00:22:10.500Z,7.30
2018-12-05T00:23:10.410Z,9.20
2018-12-05T00:24:10.438Z,8.70
2018-12-05T00:25:10.389Z,6.50
2018-12-05T00:26:10.372Z,10.50
2018-12-05T00:27:10.361Z,10.70
2018-12-05T00:28:10.349Z,9.30
2018-12-05T00:29:10.366Z,6.70
2018-12-05T00:30:10.328Z,7.30
2018-12-05T00:31:10.345Z,9.60
2018-12-05T00:32:10.304Z,8.70
2018-12-05T00:33:10.290Z,13.40
2018-12-05T00:34:10.305Z,7.80
2018-12-05T00:35:10.278Z,11.70
2018-12-05T00:36:10.267Z,9.40
2018-12-05T00:37:10.252Z,8.00
2018-12-05T00:38:10.241Z,12.20
2018-12-05T00:39:10.247Z,7.80
2018-12-05T00:40:10.219Z,8.70
2018-12-05T00:41:10.206Z,11.70
2018-12-05T00:42:10.202Z,7.40
2018-12-05T00:43:10.191Z,7.20
2018-12-05T00:44:10.194Z,10.70
2018-12-05T00:45:10.184Z,7.80
2018-12-05T00:46:10.164Z,9.50
2018-12-05T00:47:10.146Z,15.00
2018-12-05T00:48:10.144Z,9.60
2018-12-05T00:49:10.158Z,9.10
2018-12-05T00:50:10.118Z,7.30
2018-12-05T00:51:10.110Z,10.50
2018-12-05T00:52:10.098Z,8.30
2018-12-05T00:53:10.083Z,9.90
2018-12-05T00:54:10.121Z,11.80
2018-12-05T00:55:10.076Z,11.40
2018-12-05T00:56:10.060Z,12.30
2018-12-05T00:57:10.040Z,9.50
2018-12-05T00:58:10.033Z,12.20
2018-12-05T00:59:10.024Z,8.40
2018-12-05T01:00:10.032Z,8.90
2018-12-05T01:01:09.996Z,9.40
2018-12-05T01:02:09.990Z,9.60
2018-12-05T01:03:09.978Z,9.10
2018-12-05T01:04:09.970Z,5.40
2018-12-05T01:05:09.981Z,6.70
2018-12-05T01:06:09.962Z,11.60
2018-12-05T01:07:09.937Z,8.40
2018-12-05T01:08:09.926Z,12.80
2018-12-05T01:09:09.916Z,15.40
2018-12-05T01:10:09.924Z,11.90
2018-12-05T01:11:09.906Z,12.70
2018-12-05T01:12:09.896Z,12.10
2018-12-05T01:13:09.873Z,7.20
2018-12-05T01:14:09.863Z,6.30
2018-12-05T01:15:09.880Z,8.20
2018-12-05T01:16:09.844Z,10.70
2018-12-05T01:17:09.838Z,18.30
2018-12-05T01:18:09.846Z,10.30
2018-12-05T01:19:09.812Z,7.30
2018-12-05T01:20:09.815Z,10.80
2018-12-05T01:21:09.797Z,13.60
2018-12-05T01:22:09.792Z,11.30
2018-12-05T01:23:09.770Z,13.30
2018-12-05T01:24:09.756Z,9.70
2018-12-05T01:25:09.764Z,15.30
2018-12-05T01:26:09.738Z,9.30
2018-12-05T01:27:09.739Z,8.00
2018-12-05T01:28:09.734Z,11.20
2018-12-05T01:29:09.715Z,8.30
2018-12-05T01:30:09.724Z,8.00
2018-12-05T01:31:17.636Z,10.40
2018-12-05T01:32:18.682Z,9.00
2018-12-05T01:33:09.669Z,12.80
2018-12-05T01:34:18.703Z,10.20
2018-12-05T01:35:09.670Z,9.80
2018-12-05T01:36:09.634Z,12.50
2018-12-05T01:37:09.623Z,9.50
2018-12-05T01:38:09.617Z,10.00
2018-12-05T01:39:09.609Z,7.70
2018-12-05T01:40:09.597Z,10.70
2018-12-05T01:41:09.607Z,11.00
2018-12-05T01:42:09.571Z,11.50
2018-12-05T01:43:09.564Z,7.50
2018-12-05T01:44:09.549Z,8.60
2018-12-05T01:45:09.537Z,11.00
2018-12-05T01:46:09.549Z,8.50
2018-12-05T01:47:09.559Z,9.40
2018-12-05T01:48:09.511Z,13.30
2018-12-05T01:49:09.498Z,8.20
2018-12-05T01:50:09.503Z,9.70
2018-12-05T01:51:09.503Z,8.50
2018-12-05T01:52:09.467Z,11.70
2018-12-05T01:53:09.457Z,9.30
2018-12-05T01:54:09.445Z,7.10
2018-12-05T01:55:09.435Z,8.20
2018-12-05T01:56:09.445Z,12.20
2018-12-05T01:57:09.419Z,7.50
2018-12-05T01:58:09.421Z,9.40
2018-12-05T01:59:09.392Z,7.70
2018-12-05T02:00:09.383Z,13.70
2018-12-05T02:01:09.391Z,5.80
2018-12-05T02:02:09.462Z,13.00
2018-12-05T02:03:09.357Z,10.20
2018-12-05T02:04:09.369Z,6.80
2018-12-05T02:05:09.351Z,10.60
2018-12-05T02:06:09.373Z,8.60
2018-12-05T02:07:09.311Z,8.30
2018-12-05T02:08:09.308Z,10.00
2018-12-05T02:09:09.297Z,11.60
2018-12-05T02:10:09.288Z,10.30
2018-12-05T02:11:09.298Z,9.80
2018-12-05T02:12:09.259Z,8.10
2018-12-05T02:13:09.248Z,9.80
2018-12-05T02:14:09.289Z,8.40
2018-12-05T02:15:09.231Z,11.60
2018-12-05T02:16:09.247Z,10.40
2018-12-05T02:17:09.209Z,9.60
2018-12-05T02:18:09.199Z,10.70
2018-12-05T02:19:09.193Z,10.10
2018-12-05T02:20:09.177Z,9.90
2018-12-05T02:21:16.477Z,9.50
2018-12-05T02:22:09.173Z,8.50
2018-12-05T02:23:09.147Z,9.60
2018-12-05T02:24:09.135Z,9.60
2018-12-05T02:25:17.300Z,10.20
2018-12-05T02:26:09.114Z,12.90
2018-12-05T02:27:09.119Z,11.00
2018-12-05T02:28:09.089Z,10.60
2018-12-05T02:29:09.079Z,6.20
2018-12-05T02:30:09.081Z,13.00
2018-12-05T02:31:09.058Z,10.50
2018-12-05T02:32:09.067Z,7.90
2018-12-05T02:33:09.047Z,12.00
2018-12-05T02:34:09.031Z,8.80
2018-12-05T02:35:09.027Z,7.50
2018-12-05T02:36:09.016Z,12.00
2018-12-05T02:37:09.019Z,9.70
2018-12-05T02:38:08.983Z,13.90
2018-12-05T02:39:08.986Z,10.90
2018-12-05T02:40:08.984Z,8.90
2018-12-05T02:41:08.967Z,11.20
2018-12-05T02:42:08.969Z,11.90
2018-12-05T02:43:08.945Z,9.20
2018-12-05T02:44:08.925Z,10.60
2018-12-05T02:45:08.922Z,12.20
2018-12-05T02:46:08.908Z,9.50
2018-12-05T02:47:08.914Z,14.40
2018-12-05T02:48:08.892Z,9.00
2018-12-05T02:50:10.026Z,8.70
2018-12-05T02:51:08.857Z,13.40
2018-12-05T02:52:08.899Z,10.00
2018-12-05T02:53:08.832Z,12.50
2018-12-05T02:54:08.822Z,7.00
2018-12-05T02:55:08.818Z,13.60
2018-12-05T02:56:08.804Z,11.20
2018-12-05T02:57:08.810Z,10.40
2018-12-05T02:58:08.787Z,8.00
2018-12-05T02:59:08.799Z,8.10
2018-12-05T03:00:08.764Z,9.10
2018-12-05T03:01:08.749Z,12.70
2018-12-05T03:02:08.767Z,11.80
2018-12-05T03:03:08.724Z,13.20
2018-12-05T03:04:08.711Z,13.30
2018-12-05T03:05:08.703Z,9.70
2018-12-05T03:06:08.689Z,13.20
2018-12-05T03:07:08.777Z,7.30
2018-12-05T03:08:08.689Z,10.10
2018-12-05T03:09:08.662Z,9.60
2018-12-05T03:10:08.670Z,12.30
2018-12-05T03:11:08.655Z,9.30
2018-12-05T03:12:08.637Z,10.40
2018-12-05T03:13:08.645Z,7.70
2018-12-05T03:14:08.615Z,11.90
2018-12-05T03:15:08.600Z,11.10
2018-12-05T03:16:08.634Z,11.50
2018-12-05T03:17:08.577Z,8.40
2018-12-05T03:18:08.597Z,10.40
2018-12-05T03:19:08.557Z,14.40
2018-12-05T03:20:08.548Z,12.00
2018-12-05T03:21:08.540Z,9.20
2018-12-05T03:22:08.525Z,11.80
2018-12-05T03:23:08.535Z,11.90
2018-12-05T03:24:08.500Z,12.70
2018-12-05T03:25:08.494Z,11.10
2018-12-05T03:26:08.489Z,11.50
2018-12-05T03:27:08.471Z,12.90
2018-12-05T03:28:08.475Z,11.70
2018-12-05T03:29:08.464Z,7.00
2018-12-05T03:30:08.441Z,11.90
2018-12-05T03:31:08.438Z,9.70
2018-12-05T03:32:08.436Z,12.80
2018-12-05T03:33:08.438Z,13.40
2018-12-05T03:34:08.403Z,12.20
2018-12-05T03:35:08.389Z,9.30
2018-12-05T03:36:08.385Z,7.30
2018-12-05T03:37:08.384Z,13.10
2018-12-05T03:38:08.381Z,9.50
2018-12-05T03:39:08.346Z,11.10
2018-12-05T03:40:08.349Z,8.40
2018-12-05T03:41:08.342Z,11.40
2018-12-05T03:42:08.317Z,15.00
2018-12-05T03:43:08.323Z,11.80
2018-12-05T03:44:08.303Z,15.50
2018-12-05T03:45:08.283Z,10.90
2018-12-05T03:46:08.279Z,9.90
2018-12-05T03:47:08.283Z,12.70
2018-12-05T03:48:08.287Z,11.80
2018-12-05T03:49:08.244Z,13.40
2018-12-05T03:50:08.229Z,10.50
2018-12-05T03:51:08.220Z,12.30
2018-12-05T03:52:08.209Z,12.30
2018-12-05T03:53:08.207Z,10.30
2018-12-05T03:54:08.217Z,14.80
2018-12-05T03:55:08.187Z,11.20
2018-12-05T03:56:08.167Z,10.70
2018-12-05T03:57:08.161Z,8.80
2018-12-05T03:58:08.147Z,10.80
2018-12-05T03:59:08.155Z,8.40
2018-12-05T04:00:08.133Z,11.00
2018-12-05T04:01:08.127Z,12.60
2018-12-05T04:02:08.106Z,15.30
2018-12-05T04:03:08.095Z,11.00
2018-12-05T04:04:08.117Z,11.00
2018-12-05T04:05:08.075Z,13.90
2018-12-05T04:06:08.074Z,12.10
2018-12-05T04:07:08.060Z,12.70
2018-12-05T04:08:08.116Z,12.60
2018-12-05T04:09:08.109Z,11.10
2018-12-05T04:10:08.033Z,13.20
2018-12-05T04:11:08.021Z,13.00
2018-12-05T04:12:08.004Z,11.10
2018-12-05T04:13:07.987Z,16.30
2018-12-05T04:14:08.010Z,11.30
2018-12-05T04:15:07.967Z,10.40
2018-12-05T04:16:07.961Z,10.30
2018-12-05T04:17:07.948Z,9.90
2018-12-05T04:18:07.946Z,12.30
2018-12-05T04:19:07.947Z,11.70
2018-12-05T04:20:07.930Z,10.70
2018-12-05T04:21:07.908Z,8.70
2018-12-05T04:22:07.911Z,15.30
2018-12-05T04:23:07.959Z,14.70
2018-12-05T04:24:07.906Z,13.10
2018-12-05T04:25:07.870Z,12.80
2018-12-05T04:26:07.857Z,13.60
2018-12-05T04:27:07.856Z,12.20
2018-12-05T04:28:07.832Z,10.10
2018-12-05T04:29:07.829Z,10.20
2018-12-05T04:30:07.834Z,11.80
2018-12-05T04:31:07.804Z,8.30
2018-12-05T04:32:07.788Z,12.30
2018-12-05T04:33:07.781Z,12.10
2018-12-05T04:34:07.798Z,10.70
2018-12-05T04:35:07.772Z,18.80
2018-12-05T04:36:07.762Z,12.30
2018-12-05T04:37:07.739Z,23.80
2018-12-05T04:38:07.728Z,22.20
2018-12-05T04:39:07.730Z,12.50
2018-12-05T04:40:07.724Z,14.80
2018-12-05T04:41:07.697Z,28.10
2018-12-05T04:42:07.686Z,11.90
2018-12-05T04:43:07.674Z,10.60
2018-12-05T04:44:07.683Z,12.30
2018-12-05T04:45:07.715Z,14.60
2018-12-05T04:46:07.642Z,15.60
2018-12-05T04:47:07.634Z,10.70
2018-12-05T04:48:07.623Z,11.40
2018-12-05T04:49:07.613Z,15.30
2018-12-05T04:50:07.635Z,13.80
2018-12-05T04:51:07.603Z,11.20
2018-12-05T04:52:07.580Z,15.60
2018-12-05T04:53:07.584Z,11.00
2018-12-05T04:54:16.828Z,16.00
2018-12-05T04:55:07.620Z,12.90
2018-12-05T04:56:07.569Z,11.70
2018-12-05T04:57:07.546Z,11.80
2018-12-05T04:58:07.520Z,17.30
2018-12-05T04:59:07.514Z,11.60
2018-12-05T05:00:07.525Z,15.90
2018-12-05T05:01:16.408Z,18.60
2018-12-05T05:02:07.473Z,15.10
2018-12-05T05:03:07.462Z,16.60
2018-12-05T05:04:07.460Z,15.40
2018-12-05T05:05:07.451Z,12.70
2018-12-05T05:06:07.469Z,13.40
2018-12-05T05:07:07.452Z,16.50
2018-12-05T05:08:07.412Z,19.60
2018-12-05T05:09:07.402Z,14.30
2018-12-05T05:10:07.404Z,11.50
2018-12-05T05:11:07.411Z,18.10
2018-12-05T05:12:07.370Z,17.60
2018-12-05T05:13:07.366Z,14.80
2018-12-05T05:14:07.355Z,14.20
2018-12-05T05:15:07.344Z,19.10
2018-12-05T05:16:07.348Z,15.90
2018-12-05T05:17:07.316Z,19.60
2018-12-05T05:18:07.306Z,15.60
2018-12-05T05:19:07.304Z,14.20
2018-12-05T05:20:07.302Z,16.50
2018-12-05T05:21:07.323Z,18.10
2018-12-05T05:22:07.279Z,16.10
2018-12-05T05:23:07.263Z,14.30
2018-12-05T05:24:07.248Z,15.10
2018-12-05T05:25:07.230Z,15.90
2018-12-05T05:26:07.251Z,20.10
2018-12-05T05:27:07.215Z,18.40
2018-12-05T05:28:07.213Z,16.30
2018-12-05T05:29:07.216Z,15.80
2018-12-05T05:30:07.184Z,15.00
2018-12-05T05:31:07.192Z,15.10
2018-12-05T05:32:07.164Z,14.30
2018-12-05T05:33:07.153Z,15.20
2018-12-05T05:34:07.151Z,17.40
2018-12-05T05:35:07.180Z,11.40
2018-12-05T05:36:07.187Z,18.20
2018-12-05T05:37:07.109Z,14.80
2018-12-05T05:38:07.843Z,16.00
2018-12-05T05:39:07.090Z,17.30
2018-12-05T05:40:07.073Z,15.50
2018-12-05T05:41:07.080Z,20.10
2018-12-05T05:42:07.063Z,20.40
2018-12-05T05:43:07.042Z,16.00
2018-12-05T05:44:07.032Z,16.30
2018-12-05T05:45:07.028Z,19.20
2018-12-05T05:46:07.042Z,14.40
2018-12-05T05:47:07.000Z,17.10
2018-12-05T05:48:06.995Z,18.10
2018-12-05T05:49:06.987Z,18.40
2018-12-05T05:50:06.971Z,14.70
2018-12-05T05:51:07.009Z,15.70
2018-12-05T05:52:06.948Z,18.90
2018-12-05T05:53:06.943Z,16.20
2018-12-05T05:54:06.927Z,17.20
2018-12-05T05:55:06.929Z,20.10
2018-12-05T05:56:06.909Z,16.10
2018-12-05T05:57:06.925Z,15.60
2018-12-05T05:58:06.890Z,18.60
2018-12-05T05:59:06.888Z,17.70
2018-12-05T06:00:06.866Z,21.40
2018-12-05T06:01:06.871Z,16.30
2018-12-05T06:02:06.873Z,15.60
2018-12-05T06:03:06.851Z,15.90
2018-12-05T06:04:06.835Z,18.40
2018-12-05T06:05:06.814Z,21.10
2018-12-05T06:06:06.804Z,18.00
2018-12-05T06:07:06.823Z,20.60
2018-12-05T06:08:06.805Z,17.30
2018-12-05T06:09:06.776Z,20.40
2018-12-05T06:10:06.770Z,15.50
2018-12-05T06:11:06.749Z,17.90
2018-12-05T06:12:06.823Z,17.40
2018-12-05T06:13:06.726Z,17.40
2018-12-05T06:14:06.726Z,17.90
2018-12-05T06:15:06.716Z,16.10
2018-12-05T06:16:06.706Z,14.50
2018-12-05T06:17:06.702Z,17.60
2018-12-05T06:18:06.678Z,18.80
2018-12-05T06:19:06.664Z,15.20
2018-12-05T06:20:06.664Z,17.90
2018-12-05T06:21:06.672Z,14.60
2018-12-05T06:22:06.683Z,18.20
2018-12-05T06:23:06.630Z,16.70
2018-12-05T06:24:06.617Z,19.50
2018-12-05T06:25:06.604Z,19.70
2018-12-05T06:26:06.602Z,17.00
2018-12-05T06:27:06.690Z,19.80
2018-12-05T06:28:06.572Z,15.90
2018-12-05T06:29:06.565Z,15.70
2018-12-05T06:30:06.557Z,20.70
2018-12-05T06:31:06.545Z,19.10
2018-12-05T06:32:06.558Z,17.10
2018-12-05T06:33:06.547Z,15.30
2018-12-05T06:34:06.542Z,18.70
2018-12-05T06:35:06.510Z,15.50
2018-12-05T06:36:06.501Z,18.70
2018-12-05T06:37:06.500Z,17.60
2018-12-05T06:38:06.486Z,16.90
2018-12-05T06:39:06.456Z,17.70
2018-12-05T06:40:06.453Z,18.80
2018-12-05T06:41:06.435Z,20.90
2018-12-05T06:42:06.426Z,16.70
2018-12-05T06:43:06.448Z,17.90
2018-12-05T06:44:06.418Z,18.70
2018-12-05T06:45:06.400Z,17.80
2018-12-05T06:46:06.444Z,75.10
2018-12-05T06:47:06.374Z,22.60
2018-12-05T06:48:06.394Z,17.80
2018-12-05T06:49:06.368Z,17.60
2018-12-05T06:50:06.352Z,21.10
2018-12-05T06:51:06.331Z,23.60
2018-12-05T06:52:06.322Z,16.90
2018-12-05T06:53:06.337Z,16.60
2018-12-05T06:54:06.298Z,22.70
2018-12-05T06:55:06.298Z,17.90
2018-12-05T06:56:06.358Z,18.10
2018-12-05T06:57:06.281Z,13.20
2018-12-05T06:58:06.271Z,17.60
2018-12-05T06:59:06.252Z,18.80
2018-12-05T07:00:06.245Z,19.10
2018-12-05T07:01:06.422Z,18.20
2018-12-05T07:02:06.212Z,18.00
2018-12-05T07:03:06.253Z,20.40
2018-12-05T07:04:06.201Z,18.00
2018-12-05T07:05:06.191Z,19.80
2018-12-05T07:06:06.191Z,21.50
2018-12-05T07:07:06.175Z,20.10
2018-12-05T07:08:06.188Z,17.40
2018-12-05T07:09:06.147Z,20.70
2018-12-05T07:10:06.140Z,21.40
2018-12-05T07:11:06.132Z,19.70
2018-12-05T07:12:06.135Z,18.30
2018-12-05T07:13:06.121Z,18.00
2018-12-05T07:14:06.097Z,21.20
2018-12-05T07:15:06.083Z,15.40
2018-12-05T07:16:06.074Z,21.20
2018-12-05T07:17:06.059Z,18.70
2018-12-05T07:18:06.117Z,17.90
2018-12-05T07:19:06.046Z,18.80
2018-12-05T07:20:06.033Z,15.80
2018-12-05T07:21:06.019Z,15.10
2018-12-05T07:22:06.015Z,15.80
2018-12-05T07:23:06.007Z,18.60
2018-12-05T07:24:06.023Z,16.60
2018-12-05T07:25:05.988Z,17.20
2018-12-05T07:26:05.964Z,16.60
2018-12-05T07:27:05.970Z,18.80
2018-12-05T07:28:05.959Z,17.20
2018-12-05T07:29:05.970Z,15.10
2018-12-05T07:30:05.933Z,21.00
2018-12-05T07:31:05.927Z,20.50
2018-12-05T07:32:05.908Z,24.90
2018-12-05T07:33:05.903Z,18.90
2018-12-05T07:34:05.906Z,15.90
2018-12-05T07:35:05.884Z,20.40
2018-12-05T07:36:05.869Z,21.70
2018-12-05T07:37:05.867Z,19.10
2018-12-05T07:38:05.845Z,21.60
2018-12-05T07:39:05.859Z,17.20
2018-12-05T07:40:05.906Z,19.50
2018-12-05T07:41:05.837Z,18.10
2018-12-05T07:42:05.830Z,20.50
2018-12-05T07:43:05.793Z,18.20
2018-12-05T07:44:05.824Z,18.30
2018-12-05T07:45:05.792Z,16.00
2018-12-05T07:46:05.766Z,15.20
2018-12-05T07:47:05.755Z,17.80
2018-12-05T07:48:05.740Z,20.40
2018-12-05T07:49:05.751Z,19.90
2018-12-05T07:50:05.717Z,17.10
2018-12-05T07:51:05.707Z,21.20
2018-12-05T07:52:05.699Z,22.90
2018-12-05T07:53:05.683Z,20.00
2018-12-05T07:54:05.815Z,16.00
2018-12-05T07:55:05.668Z,17.30
2018-12-05T07:56:05.655Z,17.60
2018-12-05T07:57:05.642Z,17.20
2018-12-05T07:58:05.638Z,17.60
2018-12-05T07:59:05.662Z,16.90
2018-12-05T08:00:05.624Z,20.90
2018-12-05T08:01:05.606Z,17.10
2018-12-05T08:02:05.601Z,16.00
2018-12-05T08:03:05.586Z,15.20
2018-12-05T08:04:05.604Z,14.60
2018-12-05T08:05:05.591Z,15.30
2018-12-05T08:06:05.563Z,19.80
2018-12-05T08:07:05.533Z,17.20
2018-12-05T08:08:05.526Z,19.70
2018-12-05T08:09:05.532Z,16.70
2018-12-05T08:10:05.536Z,14.50
2018-12-05T08:11:05.523Z,16.30
2018-12-05T08:12:05.483Z,18.10
2018-12-05T08:13:05.476Z,20.40
2018-12-05T08:14:06.629Z,15.80
2018-12-05T08:15:05.475Z,15.10
2018-12-05T08:16:05.444Z,17.80
2018-12-05T08:17:05.434Z,21.90
2018-12-05T08:18:05.425Z,18.80
2018-12-05T08:19:05.431Z,19.00
2018-12-05T08:20:05.417Z,18.50
2018-12-05T08:21:05.397Z,18.60
2018-12-05T08:22:05.380Z,18.90
2018-12-05T08:23:05.384Z,18.70
2018-12-05T08:24:05.369Z,15.40
2018-12-05T08:25:05.435Z,17.00
2018-12-05T08:26:05.336Z,17.90
2018-12-05T08:27:05.333Z,19.30
2018-12-05T08:28:05.803Z,22.50
2018-12-05T08:29:05.395Z,14.00
2018-12-05T08:30:05.319Z,15.30
2018-12-05T08:31:05.284Z,21.90
2018-12-05T08:32:05.521Z,17.50
2018-12-05T08:33:05.263Z,17.70
2018-12-05T08:34:05.259Z,20.90
2018-12-05T08:35:05.283Z,21.20
2018-12-05T08:36:05.245Z,21.10
2018-12-05T08:37:05.225Z,25.20
2018-12-05T08:38:05.224Z,26.80
2018-12-05T08:39:05.199Z,15.60
2018-12-05T08:40:05.218Z,36.50
2018-12-05T08:41:05.196Z,34.60
2018-12-05T08:42:05.170Z,27.10
2018-12-05T08:43:05.161Z,25.90
2018-12-05T08:44:05.163Z,17.50
2018-12-05T08:45:05.171Z,20.50
2018-12-05T08:46:05.141Z,18.10
2018-12-05T08:47:05.117Z,28.40
2018-12-05T08:48:05.118Z,23.20
2018-12-05T08:49:05.102Z,22.90
2018-12-05T08:50:05.104Z,23.00
2018-12-05T08:51:05.075Z,23.40
2018-12-05T08:52:05.092Z,27.90
2018-12-05T08:53:05.052Z,29.40
2018-12-05T08:54:05.056Z,19.50
2018-12-05T08:55:05.087Z,35.80
2018-12-05T08:56:05.061Z,30.70
2018-12-05T08:57:05.034Z,25.40
2018-12-05T08:58:05.038Z,22.80
2018-12-05T08:59:04.997Z,21.00
2018-12-05T09:00:05.005Z,18.90
2018-12-05T09:01:04.973Z,26.70
2018-12-05T09:02:04.974Z,18.10
2018-12-05T09:03:04.955Z,19.40
2018-12-05T09:04:04.957Z,23.10
2018-12-05T09:05:04.952Z,17.30
2018-12-05T09:06:04.915Z,17.00
2018-12-05T09:07:04.911Z,13.90
2018-12-05T09:08:04.897Z,12.90
2018-12-05T09:09:04.919Z,24.60
2018-12-05T09:10:04.927Z,13.50
2018-12-05T09:11:04.902Z,23.30
2018-12-05T09:12:04.873Z,16.20
2018-12-05T09:13:04.892Z,15.70
2018-12-05T09:14:04.926Z,17.30
2018-12-05T09:15:04.842Z,17.20
2018-12-05T09:16:04.829Z,16.90
2018-12-05T09:17:04.805Z,13.60
2018-12-05T09:18:04.793Z,14.50
2018-12-05T09:19:04.785Z,19.00
2018-12-05T09:20:04.805Z,16.70
2018-12-05T09:21:04.775Z,16.30
2018-12-05T09:22:04.753Z,17.70
2018-12-05T09:23:04.821Z,14.20
2018-12-05T09:24:04.730Z,19.70
2018-12-05T09:25:04.745Z,19.10
2018-12-05T09:26:04.736Z,19.50
2018-12-05T09:27:04.704Z,20.30
2018-12-05T09:28:04.725Z,13.10
2018-12-05T09:29:04.689Z,16.50
2018-12-05T09:30:04.686Z,17.00
2018-12-05T09:31:04.667Z,17.90
2018-12-05T09:32:04.649Z,19.60
2018-12-05T09:33:04.642Z,14.10
2018-12-05T09:34:04.625Z,17.10
2018-12-05T09:35:04.655Z,15.30
2018-12-05T09:36:04.603Z,21.30
2018-12-05T09:37:04.593Z,18.80
2018-12-05T09:38:04.581Z,17.10
2018-12-05T09:39:04.586Z,16.90
2018-12-05T09:40:04.561Z,17.70
2018-12-05T09:41:04.575Z,19.60
2018-12-05T09:42:04.539Z,20.30
2018-12-05T09:43:04.528Z,15.70
2018-12-05T09:44:04.521Z,17.00
2018-12-05T09:45:04.530Z,16.60
2018-12-05T09:46:04.545Z,15.10
2018-12-05T09:47:04.490Z,20.10
2018-12-05T09:48:04.481Z,14.50
2018-12-05T09:49:04.466Z,14.80
2018-12-05T09:50:04.466Z,12.90
2018-12-05T09:51:04.465Z,17.30
2018-12-05T09:52:04.441Z,12.70
2018-12-05T09:53:04.425Z,12.60
2018-12-05T09:54:04.437Z,11.60
2018-12-05T09:55:04.407Z,16.50
2018-12-05T09:56:04.419Z,15.50
2018-12-05T09:57:04.387Z,15.50
2018-12-05T09:58:04.384Z,13.70
2018-12-05T09:59:04.354Z,18.10
2018-12-05T10:00:04.359Z,11.40
2018-12-05T10:01:04.366Z,16.50
2018-12-05T10:02:04.339Z,12.80
2018-12-05T10:03:04.317Z,17.60
2018-12-05T10:04:04.323Z,14.60
2018-12-05T10:05:04.294Z,16.10
2018-12-05T10:06:04.316Z,16.20
2018-12-05T10:07:04.280Z,13.90
2018-12-05T10:08:04.276Z,12.40
2018-12-05T10:09:04.257Z,15.60
2018-12-05T10:10:04.247Z,16.40
2018-12-05T10:11:04.269Z,13.90
2018-12-05T10:12:04.230Z,16.30
2018-12-05T10:13:04.215Z,17.20
2018-12-05T10:14:04.204Z,12.70
2018-12-05T10:15:04.194Z,13.10
2018-12-05T10:16:04.211Z,12.70
2018-12-05T10:17:04.170Z,14.90
2018-12-05T10:18:04.159Z,13.00
2018-12-05T10:19:04.149Z,14.10
2018-12-05T10:20:04.153Z,13.80
2018-12-05T10:21:04.145Z,16.50
2018-12-05T10:22:04.117Z,13.90
2018-12-05T10:23:04.112Z,19.60
2018-12-05T10:24:04.124Z,14.00
2018-12-05T10:25:04.149Z,15.80
2018-12-05T10:26:04.111Z,14.80
2018-12-05T10:27:04.071Z,14.90
2018-12-05T10:28:04.061Z,16.10
2018-12-05T10:29:04.073Z,19.10
2018-12-05T10:30:04.035Z,13.80
2018-12-05T10:31:04.029Z,15.00
2018-12-05T10:32:05.086Z,15.90
2018-12-05T10:33:04.007Z,15.30
2018-12-05T10:34:03.991Z,14.80
2018-12-05T10:35:04.009Z,16.90
2018-12-05T10:36:03.973Z,14.80
2018-12-05T10:37:03.979Z,10.70
2018-12-05T10:38:03.955Z,14.50
2018-12-05T10:39:03.950Z,15.10
2018-12-05T10:40:03.924Z,15.40
2018-12-05T10:41:03.933Z,17.80
2018-12-05T10:42:03.927Z,14.20
2018-12-05T10:43:03.913Z,10.70
2018-12-05T10:44:03.893Z,12.40
2018-12-05T10:45:03.873Z,13.50
2018-12-05T10:46:03.860Z,10.40
2018-12-05T10:47:03.874Z,12.30
2018-12-05T10:48:03.843Z,13.90
2018-12-05T10:49:03.828Z,11.90
2018-12-05T10:50:03.824Z,11.50
2018-12-05T10:51:03.811Z,8.70
2018-12-05T10:52:03.826Z,12.00
2018-12-05T10:53:03.785Z,8.80
2018-12-05T10:54:03.789Z,14.40
2018-12-05T10:55:03.768Z,9.90
2018-12-05T10:56:03.760Z,18.50
2018-12-05T10:57:03.780Z,14.10
2018-12-05T10:58:03.738Z,9.60
2018-12-05T10:59:03.722Z,11.20
2018-12-05T11:00:03.724Z,11.50
2018-12-05T11:01:03.702Z,10.90
2018-12-05T11:02:03.703Z,9.00
2018-12-05T11:03:03.683Z,11.30
2018-12-05T11:04:03.671Z,9.20
2018-12-05T11:05:03.669Z,11.00
2018-12-05T11:06:03.664Z,11.80
2018-12-05T11:07:03.655Z,13.20
2018-12-05T11:08:03.631Z,10.90
2018-12-05T11:09:03.698Z,9.00
2018-12-05T11:10:03.608Z,9.10
2018-12-05T11:11:03.600Z,10.50
2018-12-05T11:12:03.603Z,13.60
2018-12-05T11:13:03.572Z,7.90
2018-12-05T11:14:03.570Z,10.10
2018-12-05T11:15:03.600Z,9.90
2018-12-05T11:16:03.546Z,12.30
2018-12-05T11:17:03.548Z,8.70
2018-12-05T11:18:03.515Z,11.50
2018-12-05T11:19:03.510Z,11.50
2018-12-05T11:20:03.510Z,13.80
2018-12-05T11:21:03.484Z,11.80
2018-12-05T11:22:03.490Z,11.10
2018-12-05T11:23:03.487Z,12.00
2018-12-05T11:24:03.469Z,12.80
2018-12-05T11:25:03.456Z,10.80
2018-12-05T11:26:03.432Z,10.90
2018-12-05T11:27:03.429Z,11.30
2018-12-05T11:28:03.434Z,13.30
2018-12-05T11:29:03.398Z,7.10
2018-12-05T11:30:03.386Z,10.80
2018-12-05T11:31:03.376Z,8.60
2018-12-05T11:32:03.374Z,10.40
2018-12-05T11:33:03.372Z,9.00
2018-12-05T11:34:03.355Z,10.90
2018-12-05T11:35:03.339Z,9.50
2018-12-05T11:36:03.324Z,10.10
2018-12-05T11:37:03.312Z,8.10
2018-12-05T11:38:03.326Z,9.90
2018-12-05T11:39:03.294Z,9.10
2018-12-05T11:40:03.290Z,13.70
2018-12-05T11:41:03.270Z,15.20
2018-12-05T11:42:03.267Z,11.70
2018-12-05T11:43:03.269Z,11.50
2018-12-05T11:44:03.241Z,7.70
2018-12-05T11:45:03.239Z,9.70
2018-12-05T11:46:03.222Z,9.20
2018-12-05T11:47:03.211Z,10.00
2018-12-05T11:48:03.244Z,11.60
2018-12-05T11:49:03.187Z,9.10
2018-12-05T11:50:03.193Z,8.20
2018-12-05T11:51:03.170Z,10.60
2018-12-05T11:52:03.165Z,9.30
2018-12-05T11:53:03.173Z,10.40
2018-12-05T11:54:03.136Z,9.40
2018-12-05T11:55:03.127Z,8.70
2018-12-05T11:56:03.152Z,12.00
2018-12-05T11:57:03.105Z,10.30
2018-12-05T11:58:03.107Z,8.20
2018-12-05T11:59:03.084Z,8.00
2018-12-05T12:00:03.068Z,9.30
2018-12-05T12:01:03.064Z,8.00
2018-12-05T12:02:03.047Z,11.80
2018-12-05T12:03:03.049Z,8.90
2018-12-05T12:04:03.031Z,8.10
2018-12-05T12:05:03.013Z,7.70
2018-12-05T12:06:03.013Z,7.70
2018-12-05T12:07:03.001Z,6.20
2018-12-05T12:08:03.016Z,6.20
2018-12-05T12:09:02.981Z,9.00
2018-12-05T12:10:02.958Z,7.90
2018-12-05T12:11:02.945Z,10.70
2018-12-05T12:12:02.935Z,10.30
2018-12-05T12:13:02.927Z,9.80
2018-12-05T12:14:02.975Z,8.10
2018-12-05T12:15:02.915Z,9.40
2018-12-05T12:16:02.901Z,4.90
2018-12-05T12:17:02.885Z,12.40
2018-12-05T12:18:02.884Z,22.00
2018-12-05T12:19:02.886Z,10.70
2018-12-05T12:20:02.853Z,13.60
2018-12-05T12:21:02.839Z,10.20
2018-12-05T12:22:02.833Z,9.30
2018-12-05T12:23:02.821Z,9.50
2018-12-05T12:24:02.835Z,6.90
2018-12-05T12:25:02.800Z,8.30
2018-12-05T12:26:02.793Z,9.20
2018-12-05T12:27:02.777Z,7.50
2018-12-05T12:28:02.767Z,9.30
2018-12-05T12:29:02.769Z,8.30
2018-12-05T12:30:02.756Z,8.40
2018-12-05T12:31:02.739Z,4.10
2018-12-05T12:32:02.732Z,10.20
2018-12-05T12:33:02.970Z,6.10
2018-12-05T12:34:02.718Z,8.80
2018-12-05T12:35:02.706Z,9.90
2018-12-05T12:36:02.683Z,8.80
2018-12-05T12:37:02.687Z,5.80
2018-12-05T12:38:02.657Z,8.90
2018-12-05T12:39:02.674Z,9.70
2018-12-05T12:40:02.647Z,11.80
2018-12-05T12:41:02.625Z,12.00
2018-12-05T12:42:02.615Z,13.50
2018-12-05T12:43:02.609Z,10.50
2018-12-05T12:44:02.610Z,11.60
2018-12-05T12:45:02.591Z,9.70
2018-12-05T12:46:02.571Z,10.90
2018-12-05T12:47:02.563Z,11.60
2018-12-05T12:48:02.573Z,11.10
2018-12-05T12:49:02.562Z,13.80
2018-12-05T12:50:02.527Z,11.00
2018-12-05T12:51:02.531Z,8.70
2018-12-05T12:52:02.507Z,14.80
2018-12-05T12:53:02.498Z,14.00
2018-12-05T12:54:02.606Z,10.00
2018-12-05T12:55:02.494Z,16.40
2018-12-05T12:56:02.465Z,14.10
2018-12-05T12:57:02.454Z,13.60
2018-12-05T12:58:02.443Z,9.70
2018-12-05T12:59:02.434Z,21.20